sensor_id;sensor_type;location;lat;lon;timestamp;pressure;altitude;pressure_sealevel;temperature;humidity
52319;BME280;38258;51.148;14.068;2022-11-09T00:00:07;98004.22;;;7.42;100.00
52319;BME280;38258;51.148;14.068;2022-11-09T00:02:34;98002.56;;;7.38;100.00
52319;BME280;38258;51.148;14.068;2022-11-09T00:05:01;97988.09;;;7.26;100.00
52319;BME280;38258;51.148;14.068;2022-11-09T00:07:29;98006.94;;;7.35;100.00
52319;BME280;38258;51.148;14.068;2022-11-09T00:09:57;98007.66;;;7.44;100.00
52319;BME280;38258;51.148;14.068;2022-11-09T00:12:23;98013.03;;;7.36;100.00
52319;BME280;38258;51.148;14.068;2022-11-09T00:14:50;98014.91;;;7.29;100.00
52319;BME280;38258;51.148;14.068;2022-11-09T00:17:17;97995.97;;;7.21;100.00
52319;BME280;38258;51.148;14.068;2022-11-09T00:19:43;98009.72;;;7.28;100.00
52319;BME280;38258;51.148;14.068;2022-11-09T00:22:10;98016.69;;;7.26;100.00
52319;BME280;38258;51.148;14.068;2022-11-09T00:24:37;98006.53;;;7.15;100.00
52319;BME280;38258;51.148;14.068;2022-11-09T00:27:05;98019.53;;;7.15;100.00
52319;BME280;38258;51.148;14.068;2022-11-09T00:29:32;98020.09;;;7.29;100.00
52319;BME280;38258;51.148;14.068;2022-11-09T00:31:58;98013.34;;;7.20;100.00
52319;BME280;38258;51.148;14.068;2022-11-09T00:34:25;97973.13;;;6.95;100.00
52319;BME280;38258;51.148;14.068;2022-11-09T00:36:52;98006.88;;;7.39;100.00
52319;BME280;38258;51.148;14.068;2022-11-09T00:39:18;98009.56;;;7.35;100.00
52319;BME280;38258;51.148;14.068;2022-11-09T00:41:45;98018.13;;;7.41;100.00
52319;BME280;38258;51.148;14.068;2022-11-09T00:44:13;98010.38;;;7.38;100.00
52319;BME280;38258;51.148;14.068;2022-11-09T00:46:39;98018.19;;;7.38;100.00
52319;BME280;38258;51.148;14.068;2022-11-09T00:49:06;97968.59;;;7.04;100.00
52319;BME280;38258;51.148;14.068;2022-11-09T00:51:33;98008.97;;;7.22;100.00
52319;BME280;38258;51.148;14.068;2022-11-09T00:53:59;98025.25;;;7.31;100.00
52319;BME280;38258;51.148;14.068;2022-11-09T00:56:27;97974.69;;;7.02;100.00
52319;BME280;38258;51.148;14.068;2022-11-09T00:58:54;97989.31;;;7.09;100.00
52319;BME280;38258;51.148;14.068;2022-11-09T01:01:22;98014.75;;;7.35;100.00
52319;BME280;38258;51.148;14.068;2022-11-09T01:03:49;98025.53;;;7.18;100.00
52319;BME280;38258;51.148;14.068;2022-11-09T01:06:17;98025.56;;;7.17;100.00
52319;BME280;38258;51.148;14.068;2022-11-09T01:08:45;98024.75;;;7.13;100.00
52319;BME280;38258;51.148;14.068;2022-11-09T01:11:14;98027.44;;;7.10;100.00
52319;BME280;38258;51.148;14.068;2022-11-09T01:13:41;98014.56;;;7.04;100.00
52319;BME280;38258;51.148;14.068;2022-11-09T01:16:10;98025.03;;;6.99;100.00
52319;BME280;38258;51.148;14.068;2022-11-09T01:18:39;98025.13;;;6.96;100.00
52319;BME280;38258;51.148;14.068;2022-11-09T01:21:09;98034.50;;;7.02;100.00
52319;BME280;38258;51.148;14.068;2022-11-09T01:23:36;97997.75;;;6.76;100.00
52319;BME280;38258;51.148;14.068;2022-11-09T01:26:06;98029.28;;;7.05;100.00
52319;BME280;38258;51.148;14.068;2022-11-09T01:28:33;98030.94;;;7.07;100.00
52319;BME280;38258;51.148;14.068;2022-11-09T01:31:04;98017.19;;;7.01;100.00
52319;BME280;38258;51.148;14.068;2022-11-09T01:33:31;97999.28;;;6.87;100.00
52319;BME280;38258;51.148;14.068;2022-11-09T01:36:02;98019.06;;;6.94;100.00
52319;BME280;38258;51.148;14.068;2022-11-09T01:38:30;98012.44;;;6.79;100.00
52319;BME280;38258;51.148;14.068;2022-11-09T01:40:57;98023.44;;;6.92;100.00
52319;BME280;38258;51.148;14.068;2022-11-09T01:43:24;97997.03;;;6.68;100.00
52319;BME280;38258;51.148;14.068;2022-11-09T01:45:52;98022.78;;;6.81;100.00
52319;BME280;38258;51.148;14.068;2022-11-09T01:48:27;98008.28;;;6.69;100.00
52319;BME280;38258;51.148;14.068;2022-11-09T01:50:58;98016.09;;;6.69;100.00
52319;BME280;38258;51.148;14.068;2022-11-09T01:53:30;98033.19;;;6.81;100.00
52319;BME280;38258;51.148;14.068;2022-11-09T01:56:01;98032.22;;;6.86;100.00
52319;BME280;38258;51.148;14.068;2022-11-09T01:58:31;98037.25;;;6.96;100.00
52319;BME280;38258;51.148;14.068;2022-11-09T02:00:59;98027.75;;;6.93;100.00
52319;BME280;38258;51.148;14.068;2022-11-09T02:03:28;98017.44;;;6.88;100.00
52319;BME280;38258;51.148;14.068;2022-11-09T02:05:58;98014.16;;;6.78;100.00
52319;BME280;38258;51.148;14.068;2022-11-09T02:08:27;98023.41;;;6.93;100.00
52319;BME280;38258;51.148;14.068;2022-11-09T02:11:03;98013.91;;;6.92;100.00
52319;BME280;38258;51.148;14.068;2022-11-09T02:13:31;97982.28;;;6.69;100.00
52319;BME280;38258;51.148;14.068;2022-11-09T02:16:04;98020.91;;;6.89;100.00
52319;BME280;38258;51.148;14.068;2022-11-09T02:18:31;97999.66;;;6.67;100.00
52319;BME280;38258;51.148;14.068;2022-11-09T02:21:01;98019.34;;;6.78;100.00
52319;BME280;38258;51.148;14.068;2022-11-09T02:23:28;98012.69;;;6.65;100.00
52319;BME280;38258;51.148;14.068;2022-11-09T02:25:58;98015.25;;;6.67;100.00
52319;BME280;38258;51.148;14.068;2022-11-09T02:28:27;98022.03;;;6.75;100.00
52319;BME280;38258;51.148;14.068;2022-11-09T02:30:56;97982.59;;;6.53;100.00
52319;BME280;38258;51.148;14.068;2022-11-09T02:33:24;98021.06;;;6.79;100.00
52319;BME280;38258;51.148;14.068;2022-11-09T02:35:52;98018.44;;;6.81;100.00
52319;BME280;38258;51.148;14.068;2022-11-09T02:38:21;98003.91;;;6.71;100.00
52319;BME280;38258;51.148;14.068;2022-11-09T02:40:50;98001.25;;;6.74;100.00
52319;BME280;38258;51.148;14.068;2022-11-09T02:43:18;98008.13;;;6.78;100.00
52319;BME280;38258;51.148;14.068;2022-11-09T02:45:45;98005.44;;;6.81;100.00
52319;BME280;38258;51.148;14.068;2022-11-09T02:48:13;98012.50;;;6.76;100.00
52319;BME280;38258;51.148;14.068;2022-11-09T02:50:39;98006.59;;;6.66;100.00
52319;BME280;38258;51.148;14.068;2022-11-09T02:53:06;97991.19;;;6.57;100.00
52319;BME280;38258;51.148;14.068;2022-11-09T02:55:37;97997.16;;;6.62;100.00
52319;BME280;38258;51.148;14.068;2022-11-09T02:58:05;97986.84;;;6.57;100.00
52319;BME280;38258;51.148;14.068;2022-11-09T03:00:33;97969.66;;;6.48;100.00
52319;BME280;38258;51.148;14.068;2022-11-09T03:03:01;97993.84;;;6.54;100.00
52319;BME280;38258;51.148;14.068;2022-11-09T03:05:28;97985.94;;;6.60;100.00
52319;BME280;38258;51.148;14.068;2022-11-09T03:07:55;97983.19;;;6.66;100.00
52319;BME280;38258;51.148;14.068;2022-11-09T03:10:22;97950.06;;;6.30;100.00
52319;BME280;38258;51.148;14.068;2022-11-09T03:12:50;97988.59;;;6.55;100.00
52319;BME280;38258;51.148;14.068;2022-11-09T03:15:17;97988.78;;;6.46;100.00
52319;BME280;38258;51.148;14.068;2022-11-09T03:17:45;97988.69;;;6.50;100.00
52319;BME280;38258;51.148;14.068;2022-11-09T03:20:12;97987.84;;;6.50;100.00
52319;BME280;38258;51.148;14.068;2022-11-09T03:22:40;97986.81;;;6.59;100.00
52319;BME280;38258;51.148;14.068;2022-11-09T03:25:08;97946.50;;;6.38;100.00
52319;BME280;38258;51.148;14.068;2022-11-09T03:27:34;97979.19;;;6.49;100.00
52319;BME280;38258;51.148;14.068;2022-11-09T03:30:04;97989.41;;;6.60;100.00
52319;BME280;38258;51.148;14.068;2022-11-09T03:32:31;97978.94;;;6.63;100.00
52319;BME280;38258;51.148;14.068;2022-11-09T03:34:58;97971.94;;;6.67;100.00
52319;BME280;38258;51.148;14.068;2022-11-09T03:37:24;97983.78;;;6.81;100.00
52319;BME280;38258;51.148;14.068;2022-11-09T03:39:51;97977.69;;;6.83;100.00
52319;BME280;38258;51.148;14.068;2022-11-09T03:42:18;97981.25;;;6.77;100.00
52319;BME280;38258;51.148;14.068;2022-11-09T03:44:44;97997.03;;;6.68;100.00
52319;BME280;38258;51.148;14.068;2022-11-09T03:47:12;97990.91;;;6.72;100.00
52319;BME280;38258;51.148;14.068;2022-11-09T03:49:39;97990.75;;;6.78;100.00
52319;BME280;38258;51.148;14.068;2022-11-09T03:52:05;97982.16;;;6.76;100.00
52319;BME280;38258;51.148;14.068;2022-11-09T03:54:32;97969.38;;;6.65;100.00
52319;BME280;38258;51.148;14.068;2022-11-09T03:56:58;97986.34;;;6.84;100.00
52319;BME280;38258;51.148;14.068;2022-11-09T03:59:25;97977.84;;;6.74;100.00
52319;BME280;38258;51.148;14.068;2022-11-09T04:01:52;97984.81;;;6.73;100.00
52319;BME280;38258;51.148;14.068;2022-11-09T04:04:20;97963.44;;;6.57;100.00
52319;BME280;38258;51.148;14.068;2022-11-09T04:06:46;97975.41;;;6.66;100.00
52319;BME280;38258;51.148;14.068;2022-11-09T04:09:13;97985.72;;;6.71;100.00
52319;BME280;38258;51.148;14.068;2022-11-09T04:11:39;97986.44;;;6.79;100.00
52319;BME280;38258;51.148;14.068;2022-11-09T04:14:06;97985.66;;;6.74;100.00
52319;BME280;38258;51.148;14.068;2022-11-09T04:16:33;97982.44;;;6.62;100.00
52319;BME280;38258;51.148;14.068;2022-11-09T04:19:00;97970.41;;;6.55;100.00
52319;BME280;38258;51.148;14.068;2022-11-09T04:21:28;97956.59;;;6.55;100.00
52319;BME280;38258;51.148;14.068;2022-11-09T04:23:54;97984.06;;;6.67;100.00
52319;BME280;38258;51.148;14.068;2022-11-09T04:26:21;97978.94;;;6.62;100.00
52319;BME280;38258;51.148;14.068;2022-11-09T04:28:48;97961.88;;;6.48;100.00
52319;BME280;38258;51.148;14.068;2022-11-09T04:31:14;97974.78;;;6.55;100.00
52319;BME280;38258;51.148;14.068;2022-11-09T04:33:41;97952.81;;;6.24;100.00
52319;BME280;38258;51.148;14.068;2022-11-09T04:36:08;97979.84;;;6.59;100.00
52319;BME280;38258;51.148;14.068;2022-11-09T04:38:36;97992.81;;;6.62;100.00
52319;BME280;38258;51.148;14.068;2022-11-09T04:41:03;97964.38;;;6.55;100.00
52319;BME280;38258;51.148;14.068;2022-11-09T04:43:30;97952.44;;;6.44;100.00
52319;BME280;38258;51.148;14.068;2022-11-09T04:45:58;97963.50;;;6.54;100.00
52319;BME280;38258;51.148;14.068;2022-11-09T04:48:25;97965.59;;;6.35;100.00
52319;BME280;38258;51.148;14.068;2022-11-09T04:50:52;97969.13;;;6.32;100.00
52319;BME280;38258;51.148;14.068;2022-11-09T04:53:18;97970.78;;;6.35;100.00
52319;BME280;38258;51.148;14.068;2022-11-09T04:55:46;97936.38;;;6.22;100.00
52319;BME280;38258;51.148;14.068;2022-11-09T04:58:13;97982.84;;;6.39;100.00
52319;BME280;38258;51.148;14.068;2022-11-09T05:00:39;97981.03;;;6.43;100.00
52319;BME280;38258;51.148;14.068;2022-11-09T05:03:06;97980.22;;;6.41;100.00
52319;BME280;38258;51.148;14.068;2022-11-09T05:05:34;97967.19;;;6.42;100.00
52319;BME280;38258;51.148;14.068;2022-11-09T05:08:02;97971.66;;;6.34;100.00
52319;BME280;38258;51.148;14.068;2022-11-09T05:10:29;97992.34;;;6.40;100.00
52319;BME280;38258;51.148;14.068;2022-11-09T05:12:58;97985.47;;;6.36;100.00
52319;BME280;38258;51.148;14.068;2022-11-09T05:15:25;97976.03;;;6.33;100.00
52319;BME280;38258;51.148;14.068;2022-11-09T05:17:52;97972.59;;;6.31;100.00
52319;BME280;38258;51.148;14.068;2022-11-09T05:20:18;97971.59;;;6.37;100.00
52319;BME280;38258;51.148;14.068;2022-11-09T05:22:45;97976.03;;;6.33;100.00
52319;BME280;38258;51.148;14.068;2022-11-09T05:25:28;97981.16;;;6.35;100.00
52319;BME280;38258;51.148;14.068;2022-11-09T05:27:55;97987.25;;;6.34;100.00
52319;BME280;38258;51.148;14.068;2022-11-09T05:30:23;97988.13;;;6.34;100.00
52319;BME280;38258;51.148;14.068;2022-11-09T05:32:50;97964.06;;;6.23;100.00
52319;BME280;38258;51.148;14.068;2022-11-09T05:35:16;97939.94;;;6.16;100.00
52319;BME280;38258;51.148;14.068;2022-11-09T05:37:46;97985.53;;;6.33;100.00
52319;BME280;38258;51.148;14.068;2022-11-09T05:40:14;97989.03;;;6.32;100.00
52319;BME280;38258;51.148;14.068;2022-11-09T05:42:41;97948.66;;;6.14;100.00
52319;BME280;38258;51.148;14.068;2022-11-09T05:45:10;97970.03;;;6.28;100.00
52319;BME280;38258;51.148;14.068;2022-11-09T05:47:39;97989.66;;;6.45;100.00
52319;BME280;38258;51.148;14.068;2022-11-09T05:50:09;97985.25;;;6.50;100.00
52319;BME280;38258;51.148;14.068;2022-11-09T05:52:36;97975.09;;;6.36;100.00
52319;BME280;38258;51.148;14.068;2022-11-09T05:55:04;97985.16;;;6.55;100.00
52319;BME280;38258;51.148;14.068;2022-11-09T05:57:32;97980.88;;;6.50;100.00
52319;BME280;38258;51.148;14.068;2022-11-09T05:59:59;98000.66;;;6.59;100.00
52319;BME280;38258;51.148;14.068;2022-11-09T06:02:29;98005.81;;;6.61;100.00
52319;BME280;38258;51.148;14.068;2022-11-09T06:04:58;98029.22;;;6.59;100.00
52319;BME280;38258;51.148;14.068;2022-11-09T06:07:25;98032.78;;;6.55;100.00
52319;BME280;38258;51.148;14.068;2022-11-09T06:09:52;98046.50;;;6.63;100.00
52319;BME280;38258;51.148;14.068;2022-11-09T06:12:18;98042.97;;;6.68;100.00
52319;BME280;38258;51.148;14.068;2022-11-09T06:14:45;98059.22;;;6.79;100.00
52319;BME280;38258;51.148;14.068;2022-11-09T06:17:12;98038.50;;;6.74;100.00
52319;BME280;38258;51.148;14.068;2022-11-09T06:19:39;98041.22;;;6.68;100.00
52319;BME280;38258;51.148;14.068;2022-11-09T06:22:08;98037.00;;;6.61;100.00
52319;BME280;38258;51.148;14.068;2022-11-09T06:24:34;98032.69;;;6.61;100.00
52319;BME280;38258;51.148;14.068;2022-11-09T06:27:02;98035.44;;;6.54;100.00
52319;BME280;38258;51.148;14.068;2022-11-09T06:29:29;98028.44;;;6.56;100.00
52319;BME280;38258;51.148;14.068;2022-11-09T06:31:55;98034.44;;;6.59;100.00
52319;BME280;38258;51.148;14.068;2022-11-09T06:34:22;98026.63;;;6.59;100.00
52319;BME280;38258;51.148;14.068;2022-11-09T06:36:49;98037.16;;;6.51;100.00
52319;BME280;38258;51.148;14.068;2022-11-09T06:39:17;98035.38;;;6.57;100.00
52319;BME280;38258;51.148;14.068;2022-11-09T06:41:49;98039.63;;;6.59;100.00
52319;BME280;38258;51.148;14.068;2022-11-09T06:44:42;98040.34;;;6.68;100.00
52319;BME280;38258;51.148;14.068;2022-11-09T06:47:18;98045.50;;;6.71;100.00
52319;BME280;38258;51.148;14.068;2022-11-09T06:49:45;98059.31;;;6.73;100.00
52319;BME280;38258;51.148;14.068;2022-11-09T06:52:12;98037.91;;;6.60;100.00
52319;BME280;38258;51.148;14.068;2022-11-09T06:54:40;98055.13;;;6.65;100.00
52319;BME280;38258;51.148;14.068;2022-11-09T06:57:07;98040.41;;;6.64;100.00
52319;BME280;38258;51.148;14.068;2022-11-09T06:59:34;98044.72;;;6.65;100.00
52319;BME280;38258;51.148;14.068;2022-11-09T07:02:01;98040.63;;;6.52;100.00
52319;BME280;38258;51.148;14.068;2022-11-09T07:04:28;98031.94;;;6.55;100.00
52319;BME280;38258;51.148;14.068;2022-11-09T07:06:55;98043.13;;;6.58;100.00
52319;BME280;38258;51.148;14.068;2022-11-09T07:09:21;98036.25;;;6.54;100.00
52319;BME280;38258;51.148;14.068;2022-11-09T07:11:50;98054.38;;;6.60;100.00
52319;BME280;38258;51.148;14.068;2022-11-09T07:14:17;98044.75;;;6.64;100.00
52319;BME280;38258;51.148;14.068;2022-11-09T07:16:44;98043.97;;;6.59;100.00
52319;BME280;38258;51.148;14.068;2022-11-09T07:19:11;98051.78;;;6.59;100.00
52319;BME280;38258;51.148;14.068;2022-11-09T07:21:37;98037.16;;;6.51;100.00
52319;BME280;38258;51.148;14.068;2022-11-09T07:24:05;98061.97;;;6.71;100.00
52319;BME280;38258;51.148;14.068;2022-11-09T07:26:32;98057.59;;;6.72;100.00
52319;BME280;38258;51.148;14.068;2022-11-09T07:29:00;98064.41;;;6.79;100.00
52319;BME280;38258;51.148;14.068;2022-11-09T07:31:27;98079.06;;;6.83;100.00
52319;BME280;38258;51.148;14.068;2022-11-09T07:33:55;98069.53;;;6.84;100.00
52319;BME280;38258;51.148;14.068;2022-11-09T07:36:23;98070.31;;;6.87;100.00
52319;BME280;38258;51.148;14.068;2022-11-09T07:38:50;98077.94;;;6.98;100.00
52319;BME280;38258;51.148;14.068;2022-11-09T07:41:17;98056.34;;;6.95;100.00
52319;BME280;38258;51.148;14.068;2022-11-09T07:43:44;98058.63;;;7.12;100.00
52319;BME280;38258;51.148;14.068;2022-11-09T07:46:13;98067.09;;;7.20;100.00
52319;BME280;38258;51.148;14.068;2022-11-09T07:48:40;98076.53;;;7.26;100.00
52319;BME280;38258;51.148;14.068;2022-11-09T07:51:07;98073.84;;;7.30;100.00
52319;BME280;38258;51.148;14.068;2022-11-09T07:53:34;98075.50;;;7.34;100.00
52319;BME280;38258;51.148;14.068;2022-11-09T07:56:02;98072.72;;;7.44;100.00
52319;BME280;38258;51.148;14.068;2022-11-09T07:58:29;98070.69;;;7.58;100.00
52319;BME280;38258;51.148;14.068;2022-11-09T08:00:57;98084.00;;;7.43;100.00
52319;BME280;38258;51.148;14.068;2022-11-09T08:03:25;98067.69;;;7.34;100.00
52319;BME280;38258;51.148;14.068;2022-11-09T08:05:55;98082.41;;;7.35;100.00
52319;BME280;38258;51.148;14.068;2022-11-09T08:08:22;98075.47;;;7.36;100.00
52319;BME280;38258;51.148;14.068;2022-11-09T08:10:49;98065.13;;;7.33;100.00
52319;BME280;38258;51.148;14.068;2022-11-09T08:13:18;98070.19;;;7.39;100.00
52319;BME280;38258;51.148;14.068;2022-11-09T08:15:45;98057.28;;;7.34;100.00
52319;BME280;38258;51.148;14.068;2022-11-09T08:18:14;98080.44;;;7.48;100.00
52319;BME280;38258;51.148;14.068;2022-11-09T08:20:43;98064.81;;;7.48;100.00
52319;BME280;38258;51.148;14.068;2022-11-09T08:23:10;98085.88;;;7.77;100.00
52319;BME280;38258;51.148;14.068;2022-11-09T08:25:38;98083.22;;;7.80;100.00
52319;BME280;38258;51.148;14.068;2022-11-09T08:28:05;98079.84;;;7.75;100.00
52319;BME280;38258;51.148;14.068;2022-11-09T08:30:33;98087.69;;;7.73;100.00
52319;BME280;38258;51.148;14.068;2022-11-09T08:33:01;98080.50;;;7.85;100.00
52319;BME280;38258;51.148;14.068;2022-11-09T08:35:29;98080.91;;;7.68;100.00
52319;BME280;38258;51.148;14.068;2022-11-09T08:38:00;98089.69;;;7.62;100.00
52319;BME280;38258;51.148;14.068;2022-11-09T08:40:28;98101.72;;;7.68;100.00
52319;BME280;38258;51.148;14.068;2022-11-09T08:42:59;98097.53;;;7.60;100.00
52319;BME280;38258;51.148;14.068;2022-11-09T08:45:26;98101.00;;;7.59;100.00
52319;BME280;38258;51.148;14.068;2022-11-09T08:47:56;98091.41;;;7.63;100.00
52319;BME280;38258;51.148;14.068;2022-11-09T08:50:25;98092.28;;;7.62;100.00
52319;BME280;38258;51.148;14.068;2022-11-09T08:52:52;98102.22;;;7.43;100.00
52319;BME280;38258;51.148;14.068;2022-11-09T08:55:20;98098.69;;;7.45;100.00
52319;BME280;38258;51.148;14.068;2022-11-09T08:57:47;98091.81;;;7.43;100.00
52319;BME280;38258;51.148;14.068;2022-11-09T09:00:15;98108.06;;;7.54;100.00
52319;BME280;38258;51.148;14.068;2022-11-09T09:02:42;98099.22;;;7.61;100.00
52319;BME280;38258;51.148;14.068;2022-11-09T09:05:09;98101.50;;;7.77;100.00
52319;BME280;38258;51.148;14.068;2022-11-09T09:07:36;98097.19;;;7.76;100.00
52319;BME280;38258;51.148;14.068;2022-11-09T09:10:04;98107.31;;;7.90;100.00
52319;BME280;38258;51.148;14.068;2022-11-09T09:12:32;98101.25;;;7.89;100.00
52319;BME280;38258;51.148;14.068;2022-11-09T09:14:59;98087.44;;;7.86;100.00
52319;BME280;38258;51.148;14.068;2022-11-09T09:17:26;98099.44;;;7.93;100.00
52319;BME280;38258;51.148;14.068;2022-11-09T09:19:53;98101.78;;;8.05;100.00
52319;BME280;38258;51.148;14.068;2022-11-09T09:22:20;98084.72;;;7.90;100.00
52319;BME280;38258;51.148;14.068;2022-11-09T09:24:46;98111.84;;;8.19;100.00
52319;BME280;38258;51.148;14.068;2022-11-09T09:27:13;98099.44;;;8.31;100.00
52319;BME280;38258;51.148;14.068;2022-11-09T09:29:41;98094.22;;;8.31;100.00
52319;BME280;38258;51.148;14.068;2022-11-09T09:32:08;98104.03;;;8.21;100.00
52319;BME280;38258;51.148;14.068;2022-11-09T09:34:35;98119.81;;;8.13;100.00
52319;BME280;38258;51.148;14.068;2022-11-09T09:37:02;98122.34;;;8.18;100.00
52319;BME280;38258;51.148;14.068;2022-11-09T09:39:29;98113.66;;;8.16;100.00
52319;BME280;38258;51.148;14.068;2022-11-09T09:41:58;98104.38;;;8.05;100.00
52319;BME280;38258;51.148;14.068;2022-11-09T09:44:29;98115.00;;;7.96;100.00
52319;BME280;38258;51.148;14.068;2022-11-09T09:47:07;98118.97;;;8.13;100.00
52319;BME280;38258;51.148;14.068;2022-11-09T09:49:39;98106.84;;;8.10;100.00
52319;BME280;38258;51.148;14.068;2022-11-09T09:52:15;98104.22;;;8.12;100.00
52319;BME280;38258;51.148;14.068;2022-11-09T09:54:59;98113.25;;;7.97;100.00
52319;BME280;38258;51.148;14.068;2022-11-09T09:57:29;98100.34;;;7.90;100.00
52319;BME280;38258;51.148;14.068;2022-11-09T09:59:59;98093.69;;;7.78;100.00
52319;BME280;38258;51.148;14.068;2022-11-09T10:02:30;98106.81;;;7.72;100.00
52319;BME280;38258;51.148;14.068;2022-11-09T10:05:02;98110.13;;;7.79;100.00
52319;BME280;38258;51.148;14.068;2022-11-09T10:07:36;98097.16;;;7.77;100.00
52319;BME280;38258;51.148;14.068;2022-11-09T10:13:40;98099.47;;;7.91;100.00
52319;BME280;38258;51.148;14.068;2022-11-09T10:16:17;98090.13;;;7.81;100.00
52319;BME280;38258;51.148;14.068;2022-11-09T10:19:07;98100.69;;;7.75;100.00
52319;BME280;38258;51.148;14.068;2022-11-09T10:21:45;98104.09;;;7.78;100.00
52319;BME280;38258;51.148;14.068;2022-11-09T10:24:26;98089.47;;;7.73;100.00
52319;BME280;38258;51.148;14.068;2022-11-09T10:26:57;98085.06;;;7.75;100.00
52319;BME280;38258;51.148;14.068;2022-11-09T10:29:26;98083.44;;;7.69;100.00
52319;BME280;38258;51.148;14.068;2022-11-09T10:31:57;98085.13;;;7.72;100.00
52319;BME280;38258;51.148;14.068;2022-11-09T10:34:29;98074.97;;;7.61;100.00
52319;BME280;38258;51.148;14.068;2022-11-09T10:37:05;98057.59;;;7.61;100.00
52319;BME280;38258;51.148;14.068;2022-11-09T10:39:41;98073.19;;;7.61;100.00
52319;BME280;38258;51.148;14.068;2022-11-09T10:42:28;98071.31;;;7.70;100.00
52319;BME280;38258;51.148;14.068;2022-11-09T10:45:20;98063.59;;;7.65;100.00
52319;BME280;38258;51.148;14.068;2022-11-09T10:48:10;98042.75;;;7.65;100.00
52319;BME280;38258;51.148;14.068;2022-11-09T10:50:57;98051.63;;;7.56;100.00
52319;BME280;38258;51.148;14.068;2022-11-09T10:53:43;98031.97;;;7.43;100.00
52319;BME280;38258;51.148;14.068;2022-11-09T10:56:28;98040.34;;;7.57;100.00
52319;BME280;38258;51.148;14.068;2022-11-09T10:59:36;98030.03;;;7.51;100.00
52319;BME280;38258;51.148;14.068;2022-11-09T11:02:44;98031.75;;;7.52;100.00
52319;BME280;38258;51.148;14.068;2022-11-09T11:05:33;98036.19;;;7.48;100.00
52319;BME280;38258;51.148;14.068;2022-11-09T11:08:27;98017.25;;;7.40;100.00
52319;BME280;38258;51.148;14.068;2022-11-09T11:11:20;98033.44;;;7.55;100.00
52319;BME280;38258;51.148;14.068;2022-11-09T11:14:12;98045.31;;;7.67;100.00
52319;BME280;38258;51.148;14.068;2022-11-09T11:16:57;98052.84;;;7.81;100.00
52319;BME280;38258;51.148;14.068;2022-11-09T11:19:43;98053.72;;;7.80;100.00
52319;BME280;38258;51.148;14.068;2022-11-09T11:22:29;98051.94;;;7.82;100.00
52319;BME280;38258;51.148;14.068;2022-11-09T11:25:19;98035.69;;;7.72;100.00
52319;BME280;38258;51.148;14.068;2022-11-09T11:28:14;98040.06;;;7.70;100.00
52319;BME280;38258;51.148;14.068;2022-11-09T11:31:01;98032.28;;;7.68;100.00
52319;BME280;38258;51.148;14.068;2022-11-09T11:33:48;98040.19;;;7.63;100.00
52319;BME280;38258;51.148;14.068;2022-11-09T11:36:41;98045.13;;;7.76;100.00
52319;BME280;38258;51.148;14.068;2022-11-09T11:39:42;98028.03;;;7.64;100.00
52319;BME280;38258;51.148;14.068;2022-11-09T11:42:46;98040.09;;;7.67;100.00
52319;BME280;38258;51.148;14.068;2022-11-09T11:45:40;98019.00;;;7.79;100.00
52319;BME280;38258;51.148;14.068;2022-11-09T11:48:40;98024.19;;;7.81;100.00
52319;BME280;38258;51.148;14.068;2022-11-09T11:51:35;98023.22;;;7.85;100.00
52319;BME280;38258;51.148;14.068;2022-11-09T11:54:33;98007.84;;;7.74;100.00
52319;BME280;38258;51.148;14.068;2022-11-09T11:57:28;98023.19;;;7.86;100.00
52319;BME280;38258;51.148;14.068;2022-11-09T12:00:20;98009.41;;;7.81;100.00
52319;BME280;38258;51.148;14.068;2022-11-09T12:03:31;98021.44;;;7.87;100.00
52319;BME280;38258;51.148;14.068;2022-11-09T12:06:37;98019.59;;;7.92;100.00
52319;BME280;38258;51.148;14.068;2022-11-09T12:09:52;98004.50;;;7.69;100.00
52319;BME280;38258;51.148;14.068;2022-11-09T12:12:48;98033.19;;;7.66;100.00
52319;BME280;38258;51.148;14.068;2022-11-09T12:15:48;98033.19;;;7.66;100.00
52319;BME280;38258;51.148;14.068;2022-11-09T12:18:44;98030.56;;;7.67;100.00
52319;BME280;38258;51.148;14.068;2022-11-09T12:21:38;98023.47;;;7.74;100.00
52319;BME280;38258;51.148;14.068;2022-11-09T12:24:29;98001.13;;;7.63;100.00
52319;BME280;38258;51.148;14.068;2022-11-09T12:27:34;98025.38;;;7.66;100.00
52319;BME280;38258;51.148;14.068;2022-11-09T12:30:22;98020.97;;;7.69;100.00
52319;BME280;38258;51.148;14.068;2022-11-09T12:33:15;98020.00;;;7.73;100.00
52319;BME280;38258;51.148;14.068;2022-11-09T12:36:07;98007.56;;;7.86;100.00
52319;BME280;38258;51.148;14.068;2022-11-09T12:39:00;98011.09;;;7.84;100.00
52319;BME280;38258;51.148;14.068;2022-11-09T12:41:47;98010.34;;;7.78;100.00
52319;BME280;38258;51.148;14.068;2022-11-09T12:44:39;98016.66;;;7.68;100.00
52319;BME280;38258;51.148;14.068;2022-11-09T12:47:29;98005.63;;;7.57;100.00
52319;BME280;38258;51.148;14.068;2022-11-09T12:50:20;98014.88;;;7.70;100.00
52319;BME280;38258;51.148;14.068;2022-11-09T12:53:08;98007.06;;;7.70;100.00
52319;BME280;38258;51.148;14.068;2022-11-09T12:55:57;98021.13;;;7.63;100.00
52319;BME280;38258;51.148;14.068;2022-11-09T12:58:45;98012.53;;;7.59;100.00
52319;BME280;38258;51.148;14.068;2022-11-09T13:01:44;98023.75;;;7.61;100.00
52319;BME280;38258;51.148;14.068;2022-11-09T13:04:31;97916.59;;;7.03;100.00
52319;BME280;38258;51.148;14.068;2022-11-09T13:07:28;98010.47;;;7.72;100.00
52319;BME280;38258;51.148;14.068;2022-11-09T13:10:26;98027.03;;;8.07;100.00
52319;BME280;38258;51.148;14.068;2022-11-09T13:13:23;98027.22;;;8.36;100.00
52319;BME280;38258;51.148;14.068;2022-11-09T13:16:11;98034.41;;;8.62;100.00
52319;BME280;38258;51.148;14.068;2022-11-09T13:18:57;98041.22;;;8.68;100.00
52319;BME280;38258;51.148;14.068;2022-11-09T13:21:43;98041.44;;;8.59;100.00